Terminal Aerodrome Forecast
Issued by NWS

Home | Current Version | Previous Version | Graphics & Text | Print | Product List | Glossary On
Versions: 1 2 3 4 5 6 7 8 9 10 11 12 13 14 15 16
000
FTUS43 KICT 121100
TAFSLN
TAF
KSLN 121134Z 1212/1312 02015G22KT P6SM VCSH SCT008 OVC012
      TEMPO 1212/1216 4SM -RA BR OVC008
     FM121900 01014G20KT P6SM BKN015
     FM130000 02009KT P6SM SKC=

USA.gov is the U.S. government's official web portal to all federal, state and local government web resources and services.